sensor_id;sensor_type;location;lat;lon;timestamp;P1;durP1;ratioP1;P2;durP2;ratioP2
5521;SDS011;2783;48.730;8.006;2024-01-30T00:02:10;1.27;;;1.27;;
5521;SDS011;2783;48.730;8.006;2024-01-30T00:04:36;1.23;;;1.23;;
5521;SDS011;2783;48.730;8.006;2024-01-30T00:07:01;1.10;;;1.10;;
5521;SDS011;2783;48.730;8.006;2024-01-30T00:09:27;1.05;;;1.05;;
5521;SDS011;2783;48.730;8.006;2024-01-30T00:11:52;1.13;;;1.13;;
5521;SDS011;2783;48.730;8.006;2024-01-30T00:14:18;1.10;;;1.10;;
5521;SDS011;2783;48.730;8.006;2024-01-30T00:16:43;1.10;;;1.10;;
5521;SDS011;2783;48.730;8.006;2024-01-30T00:19:09;1.30;;;1.30;;
5521;SDS011;2783;48.730;8.006;2024-01-30T00:21:34;1.10;;;1.10;;
5521;SDS011;2783;48.730;8.006;2024-01-30T00:24:00;1.30;;;1.30;;
5521;SDS011;2783;48.730;8.006;2024-01-30T00:26:25;1.23;;;1.23;;
5521;SDS011;2783;48.730;8.006;2024-01-30T00:28:51;1.10;;;1.10;;
5521;SDS011;2783;48.730;8.006;2024-01-30T00:31:16;1.20;;;1.20;;
5521;SDS011;2783;48.730;8.006;2024-01-30T00:33:41;1.15;;;1.15;;
5521;SDS011;2783;48.730;8.006;2024-01-30T00:36:07;1.25;;;1.25;;
5521;SDS011;2783;48.730;8.006;2024-01-30T00:38:34;1.20;;;1.20;;
5521;SDS011;2783;48.730;8.006;2024-01-30T00:41:00;1.10;;;1.10;;
5521;SDS011;2783;48.730;8.006;2024-01-30T00:43:26;1.13;;;1.13;;
5521;SDS011;2783;48.730;8.006;2024-01-30T00:45:52;1.10;;;1.10;;
5521;SDS011;2783;48.730;8.006;2024-01-30T00:48:17;1.20;;;1.20;;
5521;SDS011;2783;48.730;8.006;2024-01-30T00:50:43;1.10;;;1.10;;
5521;SDS011;2783;48.730;8.006;2024-01-30T00:53:08;1.33;;;1.33;;
5521;SDS011;2783;48.730;8.006;2024-01-30T00:55:34;1.17;;;1.17;;
5521;SDS011;2783;48.730;8.006;2024-01-30T00:58:00;1.02;;;1.02;;
5521;SDS011;2783;48.730;8.006;2024-01-30T01:00:26;1.17;;;1.17;;
5521;SDS011;2783;48.730;8.006;2024-01-30T01:02:55;1.00;;;1.00;;
5521;SDS011;2783;48.730;8.006;2024-01-30T01:05:21;1.10;;;1.10;;
5521;SDS011;2783;48.730;8.006;2024-01-30T01:07:46;1.10;;;1.10;;
5521;SDS011;2783;48.730;8.006;2024-01-30T01:10:13;1.20;;;1.20;;
5521;SDS011;2783;48.730;8.006;2024-01-30T01:12:39;1.20;;;1.20;;
5521;SDS011;2783;48.730;8.006;2024-01-30T01:15:05;1.25;;;1.25;;
5521;SDS011;2783;48.730;8.006;2024-01-30T01:17:30;1.25;;;1.25;;
5521;SDS011;2783;48.730;8.006;2024-01-30T01:19:56;1.30;;;1.30;;
5521;SDS011;2783;48.730;8.006;2024-01-30T01:22:22;1.30;;;1.30;;
5521;SDS011;2783;48.730;8.006;2024-01-30T01:24:47;1.20;;;1.20;;
5521;SDS011;2783;48.730;8.006;2024-01-30T01:27:13;1.27;;;1.27;;
5521;SDS011;2783;48.730;8.006;2024-01-30T01:29:38;1.40;;;1.40;;
5521;SDS011;2783;48.730;8.006;2024-01-30T01:32:04;1.15;;;1.15;;
5521;SDS011;2783;48.730;8.006;2024-01-30T01:34:30;1.30;;;1.30;;
5521;SDS011;2783;48.730;8.006;2024-01-30T01:36:56;1.20;;;1.20;;
5521;SDS011;2783;48.730;8.006;2024-01-30T01:39:22;1.27;;;1.27;;
5521;SDS011;2783;48.730;8.006;2024-01-30T01:41:48;1.10;;;1.10;;
5521;SDS011;2783;48.730;8.006;2024-01-30T01:44:14;1.40;;;1.40;;
5521;SDS011;2783;48.730;8.006;2024-01-30T01:46:39;1.25;;;1.25;;
5521;SDS011;2783;48.730;8.006;2024-01-30T01:49:05;1.30;;;1.30;;
5521;SDS011;2783;48.730;8.006;2024-01-30T01:51:33;1.20;;;1.20;;
5521;SDS011;2783;48.730;8.006;2024-01-30T01:54:03;1.33;;;1.33;;
5521;SDS011;2783;48.730;8.006;2024-01-30T01:56:29;1.30;;;1.30;;
5521;SDS011;2783;48.730;8.006;2024-01-30T01:58:56;1.35;;;1.35;;
5521;SDS011;2783;48.730;8.006;2024-01-30T02:01:25;1.10;;;1.10;;
5521;SDS011;2783;48.730;8.006;2024-01-30T02:03:52;1.20;;;1.20;;
5521;SDS011;2783;48.730;8.006;2024-01-30T02:06:18;1.08;;;1.08;;
5521;SDS011;2783;48.730;8.006;2024-01-30T02:08:44;1.20;;;1.20;;
5521;SDS011;2783;48.730;8.006;2024-01-30T02:11:09;1.40;;;1.40;;
5521;SDS011;2783;48.730;8.006;2024-01-30T02:13:36;1.30;;;1.30;;
5521;SDS011;2783;48.730;8.006;2024-01-30T02:16:02;1.33;;;1.33;;
5521;SDS011;2783;48.730;8.006;2024-01-30T02:18:27;1.20;;;1.20;;
5521;SDS011;2783;48.730;8.006;2024-01-30T02:20:53;1.20;;;1.20;;
5521;SDS011;2783;48.730;8.006;2024-01-30T02:23:21;1.25;;;1.25;;
5521;SDS011;2783;48.730;8.006;2024-01-30T02:25:50;1.38;;;1.38;;
5521;SDS011;2783;48.730;8.006;2024-01-30T02:28:17;1.30;;;1.30;;
5521;SDS011;2783;48.730;8.006;2024-01-30T02:30:44;1.50;;;1.50;;
5521;SDS011;2783;48.730;8.006;2024-01-30T02:33:09;1.20;;;1.20;;
5521;SDS011;2783;48.730;8.006;2024-01-30T02:35:35;1.33;;;1.33;;
5521;SDS011;2783;48.730;8.006;2024-01-30T02:38:01;1.20;;;1.20;;
5521;SDS011;2783;48.730;8.006;2024-01-30T02:40:26;1.33;;;1.33;;
5521;SDS011;2783;48.730;8.006;2024-01-30T02:42:52;1.35;;;1.35;;
5521;SDS011;2783;48.730;8.006;2024-01-30T02:45:17;1.38;;;1.38;;
5521;SDS011;2783;48.730;8.006;2024-01-30T02:47:43;1.27;;;1.27;;
5521;SDS011;2783;48.730;8.006;2024-01-30T02:50:08;1.20;;;1.20;;
5521;SDS011;2783;48.730;8.006;2024-01-30T02:52:34;1.50;;;1.50;;
5521;SDS011;2783;48.730;8.006;2024-01-30T02:55:00;1.33;;;1.33;;
5521;SDS011;2783;48.730;8.006;2024-01-30T02:57:26;1.30;;;1.30;;
5521;SDS011;2783;48.730;8.006;2024-01-30T02:59:51;1.30;;;1.30;;
5521;SDS011;2783;48.730;8.006;2024-01-30T03:02:16;1.30;;;1.30;;
5521;SDS011;2783;48.730;8.006;2024-01-30T03:04:42;1.40;;;1.40;;
5521;SDS011;2783;48.730;8.006;2024-01-30T03:07:08;1.38;;;1.38;;
5521;SDS011;2783;48.730;8.006;2024-01-30T03:09:33;1.40;;;1.40;;
5521;SDS011;2783;48.730;8.006;2024-01-30T03:11:59;1.10;;;1.10;;
5521;SDS011;2783;48.730;8.006;2024-01-30T03:14:24;1.20;;;1.20;;
5521;SDS011;2783;48.730;8.006;2024-01-30T03:16:50;1.13;;;1.13;;
5521;SDS011;2783;48.730;8.006;2024-01-30T03:19:15;1.10;;;1.10;;
5521;SDS011;2783;48.730;8.006;2024-01-30T03:21:40;1.30;;;1.30;;
5521;SDS011;2783;48.730;8.006;2024-01-30T03:24:06;1.30;;;1.30;;
5521;SDS011;2783;48.730;8.006;2024-01-30T03:26:31;1.30;;;1.30;;
5521;SDS011;2783;48.730;8.006;2024-01-30T03:28:57;1.30;;;1.30;;
5521;SDS011;2783;48.730;8.006;2024-01-30T03:31:22;1.45;;;1.45;;
5521;SDS011;2783;48.730;8.006;2024-01-30T03:33:48;1.40;;;1.40;;
5521;SDS011;2783;48.730;8.006;2024-01-30T03:36:14;1.30;;;1.30;;
5521;SDS011;2783;48.730;8.006;2024-01-30T03:38:40;1.30;;;1.30;;
5521;SDS011;2783;48.730;8.006;2024-01-30T03:41:07;1.30;;;1.30;;
5521;SDS011;2783;48.730;8.006;2024-01-30T03:43:36;1.55;;;1.55;;
5521;SDS011;2783;48.730;8.006;2024-01-30T03:46:01;1.50;;;1.50;;
5521;SDS011;2783;48.730;8.006;2024-01-30T03:48:28;1.30;;;1.30;;
5521;SDS011;2783;48.730;8.006;2024-01-30T03:50:54;1.30;;;1.30;;
5521;SDS011;2783;48.730;8.006;2024-01-30T03:53:19;1.20;;;1.20;;
5521;SDS011;2783;48.730;8.006;2024-01-30T03:55:45;1.40;;;1.40;;
5521;SDS011;2783;48.730;8.006;2024-01-30T03:58:10;1.30;;;1.30;;
5521;SDS011;2783;48.730;8.006;2024-01-30T04:00:36;1.30;;;1.30;;
5521;SDS011;2783;48.730;8.006;2024-01-30T04:03:01;1.50;;;1.50;;
5521;SDS011;2783;48.730;8.006;2024-01-30T04:05:27;1.40;;;1.40;;
5521;SDS011;2783;48.730;8.006;2024-01-30T04:07:52;1.50;;;1.50;;
5521;SDS011;2783;48.730;8.006;2024-01-30T04:10:18;1.40;;;1.40;;
5521;SDS011;2783;48.730;8.006;2024-01-30T04:12:43;1.40;;;1.40;;
5521;SDS011;2783;48.730;8.006;2024-01-30T04:15:09;1.30;;;1.30;;
5521;SDS011;2783;48.730;8.006;2024-01-30T04:17:34;1.30;;;1.30;;
5521;SDS011;2783;48.730;8.006;2024-01-30T04:19:59;1.38;;;1.38;;
5521;SDS011;2783;48.730;8.006;2024-01-30T04:22:25;1.58;;;1.58;;
5521;SDS011;2783;48.730;8.006;2024-01-30T04:24:50;1.35;;;1.35;;
5521;SDS011;2783;48.730;8.006;2024-01-30T04:27:16;1.40;;;1.40;;
5521;SDS011;2783;48.730;8.006;2024-01-30T04:29:41;1.27;;;1.27;;
5521;SDS011;2783;48.730;8.006;2024-01-30T04:32:06;1.42;;;1.42;;
5521;SDS011;2783;48.730;8.006;2024-01-30T04:34:32;1.38;;;1.38;;
5521;SDS011;2783;48.730;8.006;2024-01-30T04:36:58;1.30;;;1.30;;
5521;SDS011;2783;48.730;8.006;2024-01-30T04:39:23;1.30;;;1.30;;
5521;SDS011;2783;48.730;8.006;2024-01-30T04:41:48;1.40;;;1.40;;
5521;SDS011;2783;48.730;8.006;2024-01-30T04:44:14;1.40;;;1.40;;
5521;SDS011;2783;48.730;8.006;2024-01-30T04:46:39;1.35;;;1.35;;
5521;SDS011;2783;48.730;8.006;2024-01-30T04:49:05;1.40;;;1.40;;
5521;SDS011;2783;48.730;8.006;2024-01-30T04:51:32;1.40;;;1.40;;
5521;SDS011;2783;48.730;8.006;2024-01-30T04:53:58;1.20;;;1.20;;
5521;SDS011;2783;48.730;8.006;2024-01-30T04:56:24;1.40;;;1.40;;
5521;SDS011;2783;48.730;8.006;2024-01-30T04:58:49;1.38;;;1.38;;
5521;SDS011;2783;48.730;8.006;2024-01-30T05:01:15;1.27;;;1.27;;
5521;SDS011;2783;48.730;8.006;2024-01-30T05:03:41;1.33;;;1.33;;
5521;SDS011;2783;48.730;8.006;2024-01-30T05:06:06;1.40;;;1.40;;
5521;SDS011;2783;48.730;8.006;2024-01-30T05:08:32;1.45;;;1.45;;
5521;SDS011;2783;48.730;8.006;2024-01-30T05:11:00;1.20;;;1.20;;
5521;SDS011;2783;48.730;8.006;2024-01-30T05:13:26;1.50;;;1.50;;
5521;SDS011;2783;48.730;8.006;2024-01-30T05:15:52;1.27;;;1.27;;
5521;SDS011;2783;48.730;8.006;2024-01-30T05:18:17;1.40;;;1.40;;
5521;SDS011;2783;48.730;8.006;2024-01-30T05:20:42;1.30;;;1.30;;
5521;SDS011;2783;48.730;8.006;2024-01-30T05:23:08;1.40;;;1.40;;
5521;SDS011;2783;48.730;8.006;2024-01-30T05:25:33;1.20;;;1.20;;
5521;SDS011;2783;48.730;8.006;2024-01-30T05:27:59;1.30;;;1.30;;
5521;SDS011;2783;48.730;8.006;2024-01-30T05:30:24;1.30;;;1.30;;
5521;SDS011;2783;48.730;8.006;2024-01-30T05:32:49;1.38;;;1.38;;
5521;SDS011;2783;48.730;8.006;2024-01-30T05:35:15;1.40;;;1.40;;
5521;SDS011;2783;48.730;8.006;2024-01-30T05:37:41;1.42;;;1.42;;
5521;SDS011;2783;48.730;8.006;2024-01-30T05:40:06;1.40;;;1.40;;
5521;SDS011;2783;48.730;8.006;2024-01-30T05:42:33;1.40;;;1.40;;
5521;SDS011;2783;48.730;8.006;2024-01-30T05:44:58;1.30;;;1.30;;
5521;SDS011;2783;48.730;8.006;2024-01-30T05:47:23;1.40;;;1.40;;
5521;SDS011;2783;48.730;8.006;2024-01-30T05:49:49;1.40;;;1.40;;
5521;SDS011;2783;48.730;8.006;2024-01-30T05:52:14;1.50;;;1.50;;
5521;SDS011;2783;48.730;8.006;2024-01-30T05:54:40;1.40;;;1.40;;
5521;SDS011;2783;48.730;8.006;2024-01-30T05:57:05;1.30;;;1.30;;
5521;SDS011;2783;48.730;8.006;2024-01-30T05:59:31;1.35;;;1.35;;
5521;SDS011;2783;48.730;8.006;2024-01-30T06:01:57;1.40;;;1.40;;
5521;SDS011;2783;48.730;8.006;2024-01-30T06:04:22;1.35;;;1.35;;
5521;SDS011;2783;48.730;8.006;2024-01-30T06:06:48;1.30;;;1.30;;
5521;SDS011;2783;48.730;8.006;2024-01-30T06:09:14;1.30;;;1.30;;
5521;SDS011;2783;48.730;8.006;2024-01-30T06:11:39;1.40;;;1.40;;
5521;SDS011;2783;48.730;8.006;2024-01-30T06:14:05;1.40;;;1.40;;
5521;SDS011;2783;48.730;8.006;2024-01-30T06:16:30;1.30;;;1.30;;
5521;SDS011;2783;48.730;8.006;2024-01-30T06:18:56;1.50;;;1.50;;
5521;SDS011;2783;48.730;8.006;2024-01-30T06:21:21;1.50;;;1.50;;
5521;SDS011;2783;48.730;8.006;2024-01-30T06:23:47;1.40;;;1.40;;
5521;SDS011;2783;48.730;8.006;2024-01-30T06:26:12;1.40;;;1.40;;
5521;SDS011;2783;48.730;8.006;2024-01-30T06:28:38;1.30;;;1.30;;
5521;SDS011;2783;48.730;8.006;2024-01-30T06:31:03;1.50;;;1.50;;
5521;SDS011;2783;48.730;8.006;2024-01-30T06:33:29;1.30;;;1.30;;
5521;SDS011;2783;48.730;8.006;2024-01-30T06:35:55;1.30;;;1.30;;
5521;SDS011;2783;48.730;8.006;2024-01-30T06:38:20;1.50;;;1.50;;
5521;SDS011;2783;48.730;8.006;2024-01-30T06:40:45;1.40;;;1.40;;
5521;SDS011;2783;48.730;8.006;2024-01-30T06:43:11;1.17;;;1.17;;
5521;SDS011;2783;48.730;8.006;2024-01-30T06:45:36;1.20;;;1.20;;
5521;SDS011;2783;48.730;8.006;2024-01-30T06:48:02;1.50;;;1.50;;
5521;SDS011;2783;48.730;8.006;2024-01-30T06:50:28;1.50;;;1.50;;
5521;SDS011;2783;48.730;8.006;2024-01-30T06:52:53;1.20;;;1.20;;
5521;SDS011;2783;48.730;8.006;2024-01-30T06:55:19;1.48;;;1.48;;
5521;SDS011;2783;48.730;8.006;2024-01-30T06:57:44;1.40;;;1.40;;
5521;SDS011;2783;48.730;8.006;2024-01-30T07:00:10;1.50;;;1.50;;
5521;SDS011;2783;48.730;8.006;2024-01-30T07:02:35;1.40;;;1.40;;
5521;SDS011;2783;48.730;8.006;2024-01-30T07:05:01;1.35;;;1.35;;
5521;SDS011;2783;48.730;8.006;2024-01-30T07:07:27;1.30;;;1.30;;
5521;SDS011;2783;48.730;8.006;2024-01-30T07:09:53;1.40;;;1.40;;
5521;SDS011;2783;48.730;8.006;2024-01-30T07:12:21;1.40;;;1.40;;
5521;SDS011;2783;48.730;8.006;2024-01-30T07:14:49;1.40;;;1.40;;
5521;SDS011;2783;48.730;8.006;2024-01-30T07:17:15;1.48;;;1.48;;
5521;SDS011;2783;48.730;8.006;2024-01-30T07:19:40;1.30;;;1.30;;
5521;SDS011;2783;48.730;8.006;2024-01-30T07:22:06;1.30;;;1.30;;
5521;SDS011;2783;48.730;8.006;2024-01-30T07:24:31;1.30;;;1.30;;
5521;SDS011;2783;48.730;8.006;2024-01-30T07:26:57;1.13;;;1.13;;
5521;SDS011;2783;48.730;8.006;2024-01-30T07:29:22;1.30;;;1.30;;
5521;SDS011;2783;48.730;8.006;2024-01-30T07:31:47;1.30;;;1.30;;
5521;SDS011;2783;48.730;8.006;2024-01-30T07:34:13;1.20;;;1.20;;
5521;SDS011;2783;48.730;8.006;2024-01-30T07:36:38;1.30;;;1.30;;
5521;SDS011;2783;48.730;8.006;2024-01-30T07:39:04;1.17;;;1.17;;
5521;SDS011;2783;48.730;8.006;2024-01-30T07:41:29;1.35;;;1.35;;
5521;SDS011;2783;48.730;8.006;2024-01-30T07:43:55;1.25;;;1.25;;
5521;SDS011;2783;48.730;8.006;2024-01-30T07:46:20;1.25;;;1.25;;
5521;SDS011;2783;48.730;8.006;2024-01-30T07:48:45;1.23;;;1.23;;
5521;SDS011;2783;48.730;8.006;2024-01-30T07:51:11;1.30;;;1.30;;
5521;SDS011;2783;48.730;8.006;2024-01-30T07:53:36;1.20;;;1.20;;
5521;SDS011;2783;48.730;8.006;2024-01-30T07:56:02;1.40;;;1.40;;
5521;SDS011;2783;48.730;8.006;2024-01-30T07:58:27;1.35;;;1.35;;
5521;SDS011;2783;48.730;8.006;2024-01-30T08:00:53;1.30;;;1.30;;
5521;SDS011;2783;48.730;8.006;2024-01-30T08:03:18;1.25;;;1.25;;
5521;SDS011;2783;48.730;8.006;2024-01-30T08:05:44;1.15;;;1.15;;
5521;SDS011;2783;48.730;8.006;2024-01-30T08:08:09;1.10;;;1.10;;
5521;SDS011;2783;48.730;8.006;2024-01-30T08:10:35;1.17;;;1.17;;
5521;SDS011;2783;48.730;8.006;2024-01-30T08:13:01;1.20;;;1.20;;
5521;SDS011;2783;48.730;8.006;2024-01-30T08:15:27;1.10;;;1.10;;
5521;SDS011;2783;48.730;8.006;2024-01-30T08:17:52;1.00;;;1.00;;
5521;SDS011;2783;48.730;8.006;2024-01-30T08:20:22;1.00;;;1.00;;
5521;SDS011;2783;48.730;8.006;2024-01-30T08:22:48;1.00;;;1.00;;
5521;SDS011;2783;48.730;8.006;2024-01-30T08:25:14;0.95;;;0.95;;
5521;SDS011;2783;48.730;8.006;2024-01-30T08:27:39;1.13;;;1.13;;
5521;SDS011;2783;48.730;8.006;2024-01-30T08:30:06;1.10;;;1.10;;
5521;SDS011;2783;48.730;8.006;2024-01-30T08:32:32;1.00;;;1.00;;
5521;SDS011;2783;48.730;8.006;2024-01-30T08:34:57;0.90;;;0.90;;
5521;SDS011;2783;48.730;8.006;2024-01-30T08:37:23;1.00;;;1.00;;
5521;SDS011;2783;48.730;8.006;2024-01-30T08:39:48;1.10;;;1.10;;
5521;SDS011;2783;48.730;8.006;2024-01-30T08:42:14;1.20;;;1.20;;
5521;SDS011;2783;48.730;8.006;2024-01-30T08:44:39;0.90;;;0.90;;
5521;SDS011;2783;48.730;8.006;2024-01-30T08:47:05;0.95;;;0.95;;
5521;SDS011;2783;48.730;8.006;2024-01-30T08:49:31;0.90;;;0.90;;
5521;SDS011;2783;48.730;8.006;2024-01-30T08:51:56;1.00;;;1.00;;
5521;SDS011;2783;48.730;8.006;2024-01-30T08:54:22;1.00;;;1.00;;
5521;SDS011;2783;48.730;8.006;2024-01-30T08:56:49;0.82;;;0.82;;
5521;SDS011;2783;48.730;8.006;2024-01-30T08:59:14;0.93;;;0.93;;
5521;SDS011;2783;48.730;8.006;2024-01-30T09:01:40;1.00;;;1.00;;
5521;SDS011;2783;48.730;8.006;2024-01-30T09:04:05;0.90;;;0.90;;
5521;SDS011;2783;48.730;8.006;2024-01-30T09:06:31;1.10;;;1.10;;
5521;SDS011;2783;48.730;8.006;2024-01-30T09:08:56;1.00;;;1.00;;
5521;SDS011;2783;48.730;8.006;2024-01-30T09:11:23;0.90;;;0.90;;
5521;SDS011;2783;48.730;8.006;2024-01-30T09:13:48;1.10;;;1.10;;
5521;SDS011;2783;48.730;8.006;2024-01-30T09:16:14;0.90;;;0.90;;
5521;SDS011;2783;48.730;8.006;2024-01-30T09:18:41;0.90;;;0.90;;
5521;SDS011;2783;48.730;8.006;2024-01-30T09:21:07;0.90;;;0.90;;
5521;SDS011;2783;48.730;8.006;2024-01-30T09:23:32;0.80;;;0.80;;
5521;SDS011;2783;48.730;8.006;2024-01-30T09:25:58;0.93;;;0.93;;
5521;SDS011;2783;48.730;8.006;2024-01-30T09:28:24;1.00;;;1.00;;
5521;SDS011;2783;48.730;8.006;2024-01-30T09:30:49;1.00;;;1.00;;
5521;SDS011;2783;48.730;8.006;2024-01-30T09:33:15;1.00;;;1.00;;
5521;SDS011;2783;48.730;8.006;2024-01-30T09:35:40;0.95;;;0.95;;
5521;SDS011;2783;48.730;8.006;2024-01-30T09:38:05;1.00;;;1.00;;
5521;SDS011;2783;48.730;8.006;2024-01-30T09:40:31;0.98;;;0.98;;
5521;SDS011;2783;48.730;8.006;2024-01-30T09:42:56;0.88;;;0.88;;
5521;SDS011;2783;48.730;8.006;2024-01-30T09:45:25;0.75;;;0.75;;
5521;SDS011;2783;48.730;8.006;2024-01-30T09:47:51;0.80;;;0.80;;
5521;SDS011;2783;48.730;8.006;2024-01-30T09:50:18;1.02;;;1.02;;
5521;SDS011;2783;48.730;8.006;2024-01-30T09:52:44;1.00;;;1.00;;
5521;SDS011;2783;48.730;8.006;2024-01-30T09:55:10;0.80;;;0.80;;
5521;SDS011;2783;48.730;8.006;2024-01-30T09:57:36;0.80;;;0.80;;
5521;SDS011;2783;48.730;8.006;2024-01-30T10:00:02;0.90;;;0.90;;
5521;SDS011;2783;48.730;8.006;2024-01-30T10:02:33;0.80;;;0.80;;
5521;SDS011;2783;48.730;8.006;2024-01-30T10:05:00;0.80;;;0.80;;
5521;SDS011;2783;48.730;8.006;2024-01-30T10:07:25;0.90;;;0.90;;
5521;SDS011;2783;48.730;8.006;2024-01-30T10:09:52;0.90;;;0.90;;
5521;SDS011;2783;48.730;8.006;2024-01-30T10:12:18;0.80;;;0.80;;
5521;SDS011;2783;48.730;8.006;2024-01-30T10:14:44;0.90;;;0.90;;
5521;SDS011;2783;48.730;8.006;2024-01-30T10:17:09;0.90;;;0.90;;
5521;SDS011;2783;48.730;8.006;2024-01-30T10:19:36;0.88;;;0.88;;
5521;SDS011;2783;48.730;8.006;2024-01-30T10:22:03;0.90;;;0.90;;
5521;SDS011;2783;48.730;8.006;2024-01-30T10:24:29;0.88;;;0.88;;
5521;SDS011;2783;48.730;8.006;2024-01-30T10:26:54;0.80;;;0.80;;
5521;SDS011;2783;48.730;8.006;2024-01-30T10:29:21;0.80;;;0.80;;
5521;SDS011;2783;48.730;8.006;2024-01-30T10:31:57;0.90;;;0.90;;
5521;SDS011;2783;48.730;8.006;2024-01-30T10:34:25;0.80;;;0.80;;
5521;SDS011;2783;48.730;8.006;2024-01-30T10:36:51;0.90;;;0.90;;
5521;SDS011;2783;48.730;8.006;2024-01-30T10:39:29;0.90;;;0.90;;
5521;SDS011;2783;48.730;8.006;2024-01-30T10:41:56;0.82;;;0.82;;
5521;SDS011;2783;48.730;8.006;2024-01-30T10:44:28;0.80;;;0.80;;
5521;SDS011;2783;48.730;8.006;2024-01-30T10:47:02;0.80;;;0.80;;
5521;SDS011;2783;48.730;8.006;2024-01-30T10:49:31;0.80;;;0.80;;
5521;SDS011;2783;48.730;8.006;2024-01-30T10:51:56;0.80;;;0.80;;
5521;SDS011;2783;48.730;8.006;2024-01-30T10:54:23;0.80;;;0.80;;
5521;SDS011;2783;48.730;8.006;2024-01-30T10:56:50;0.80;;;0.80;;
5521;SDS011;2783;48.730;8.006;2024-01-30T10:59:16;0.80;;;0.80;;
5521;SDS011;2783;48.730;8.006;2024-01-30T11:01:42;0.70;;;0.70;;
5521;SDS011;2783;48.730;8.006;2024-01-30T11:04:07;0.70;;;0.70;;
5521;SDS011;2783;48.730;8.006;2024-01-30T11:06:40;0.80;;;0.80;;
5521;SDS011;2783;48.730;8.006;2024-01-30T11:09:10;0.80;;;0.80;;
5521;SDS011;2783;48.730;8.006;2024-01-30T11:11:50;0.80;;;0.80;;
5521;SDS011;2783;48.730;8.006;2024-01-30T11:14:16;0.80;;;0.80;;
5521;SDS011;2783;48.730;8.006;2024-01-30T11:16:48;0.80;;;0.80;;
5521;SDS011;2783;48.730;8.006;2024-01-30T11:19:14;0.80;;;0.80;;
5521;SDS011;2783;48.730;8.006;2024-01-30T11:21:42;0.70;;;0.70;;
5521;SDS011;2783;48.730;8.006;2024-01-30T11:24:08;0.60;;;0.60;;
5521;SDS011;2783;48.730;8.006;2024-01-30T11:26:34;0.65;;;0.65;;
5521;SDS011;2783;48.730;8.006;2024-01-30T11:29:02;0.60;;;0.60;;
5521;SDS011;2783;48.730;8.006;2024-01-30T11:31:29;0.60;;;0.60;;
5521;SDS011;2783;48.730;8.006;2024-01-30T11:33:55;0.50;;;0.50;;
5521;SDS011;2783;48.730;8.006;2024-01-30T11:36:23;0.60;;;0.60;;
5521;SDS011;2783;48.730;8.006;2024-01-30T11:38:51;0.60;;;0.60;;
5521;SDS011;2783;48.730;8.006;2024-01-30T11:41:16;0.57;;;0.57;;
5521;SDS011;2783;48.730;8.006;2024-01-30T11:43:43;0.50;;;0.50;;
5521;SDS011;2783;48.730;8.006;2024-01-30T11:46:08;0.57;;;0.57;;
5521;SDS011;2783;48.730;8.006;2024-01-30T11:48:35;0.55;;;0.55;;
5521;SDS011;2783;48.730;8.006;2024-01-30T11:51:00;0.60;;;0.60;;
5521;SDS011;2783;48.730;8.006;2024-01-30T11:53:26;0.60;;;0.60;;
5521;SDS011;2783;48.730;8.006;2024-01-30T11:55:52;0.60;;;0.60;;
5521;SDS011;2783;48.730;8.006;2024-01-30T11:58:18;0.60;;;0.60;;
5521;SDS011;2783;48.730;8.006;2024-01-30T12:00:52;0.60;;;0.60;;
5521;SDS011;2783;48.730;8.006;2024-01-30T12:03:18;0.60;;;0.60;;
5521;SDS011;2783;48.730;8.006;2024-01-30T12:05:43;0.50;;;0.50;;
5521;SDS011;2783;48.730;8.006;2024-01-30T12:08:14;0.60;;;0.60;;
5521;SDS011;2783;48.730;8.006;2024-01-30T12:10:41;0.60;;;0.60;;
5521;SDS011;2783;48.730;8.006;2024-01-30T12:13:06;0.70;;;0.70;;
5521;SDS011;2783;48.730;8.006;2024-01-30T12:15:31;0.60;;;0.60;;
5521;SDS011;2783;48.730;8.006;2024-01-30T12:18:04;0.50;;;0.50;;
5521;SDS011;2783;48.730;8.006;2024-01-30T12:22:56;0.50;;;0.50;;
5521;SDS011;2783;48.730;8.006;2024-01-30T12:25:21;0.60;;;0.60;;
5521;SDS011;2783;48.730;8.006;2024-01-30T12:27:48;0.50;;;0.50;;
5521;SDS011;2783;48.730;8.006;2024-01-30T12:30:15;0.50;;;0.50;;
5521;SDS011;2783;48.730;8.006;2024-01-30T12:32:41;0.50;;;0.50;;
5521;SDS011;2783;48.730;8.006;2024-01-30T12:35:12;0.60;;;0.60;;
5521;SDS011;2783;48.730;8.006;2024-01-30T12:37:38;0.60;;;0.60;;
5521;SDS011;2783;48.730;8.006;2024-01-30T12:40:04;0.50;;;0.50;;
5521;SDS011;2783;48.730;8.006;2024-01-30T12:42:31;0.50;;;0.50;;
5521;SDS011;2783;48.730;8.006;2024-01-30T12:44:57;0.50;;;0.50;;
5521;SDS011;2783;48.730;8.006;2024-01-30T12:47:23;0.60;;;0.60;;
5521;SDS011;2783;48.730;8.006;2024-01-30T12:49:49;0.50;;;0.50;;
5521;SDS011;2783;48.730;8.006;2024-01-30T12:52:18;0.60;;;0.60;;
5521;SDS011;2783;48.730;8.006;2024-01-30T12:54:44;0.60;;;0.60;;
5521;SDS011;2783;48.730;8.006;2024-01-30T12:57:10;0.50;;;0.50;;
5521;SDS011;2783;48.730;8.006;2024-01-30T12:59:35;0.50;;;0.50;;
5521;SDS011;2783;48.730;8.006;2024-01-30T13:02:01;0.50;;;0.50;;
5521;SDS011;2783;48.730;8.006;2024-01-30T13:04:28;0.60;;;0.60;;
5521;SDS011;2783;48.730;8.006;2024-01-30T13:06:54;0.50;;;0.50;;
5521;SDS011;2783;48.730;8.006;2024-01-30T13:09:19;0.50;;;0.50;;
5521;SDS011;2783;48.730;8.006;2024-01-30T13:11:46;0.50;;;0.50;;
5521;SDS011;2783;48.730;8.006;2024-01-30T13:14:12;0.60;;;0.60;;
5521;SDS011;2783;48.730;8.006;2024-01-30T13:16:37;0.50;;;0.50;;
5521;SDS011;2783;48.730;8.006;2024-01-30T13:19:03;0.50;;;0.50;;
5521;SDS011;2783;48.730;8.006;2024-01-30T13:21:28;0.50;;;0.50;;
5521;SDS011;2783;48.730;8.006;2024-01-30T13:23:54;0.50;;;0.50;;
5521;SDS011;2783;48.730;8.006;2024-01-30T13:26:22;0.50;;;0.50;;
5521;SDS011;2783;48.730;8.006;2024-01-30T13:28:47;0.50;;;0.50;;
5521;SDS011;2783;48.730;8.006;2024-01-30T13:31:14;0.50;;;0.50;;
5521;SDS011;2783;48.730;8.006;2024-01-30T13:33:40;0.50;;;0.50;;
5521;SDS011;2783;48.730;8.006;2024-01-30T13:36:06;0.50;;;0.50;;
5521;SDS011;2783;48.730;8.006;2024-01-30T13:38:32;0.50;;;0.50;;
5521;SDS011;2783;48.730;8.006;2024-01-30T13:40:58;0.60;;;0.60;;
5521;SDS011;2783;48.730;8.006;2024-01-30T13:43:24;0.50;;;0.50;;
5521;SDS011;2783;48.730;8.006;2024-01-30T13:45:49;0.60;;;0.60;;
5521;SDS011;2783;48.730;8.006;2024-01-30T13:48:14;0.60;;;0.60;;
5521;SDS011;2783;48.730;8.006;2024-01-30T13:50:40;0.50;;;0.50;;
5521;SDS011;2783;48.730;8.006;2024-01-30T13:53:05;0.50;;;0.50;;
5521;SDS011;2783;48.730;8.006;2024-01-30T13:55:31;0.60;;;0.60;;
5521;SDS011;2783;48.730;8.006;2024-01-30T13:57:56;0.50;;;0.50;;
5521;SDS011;2783;48.730;8.006;2024-01-30T14:00:22;0.55;;;0.55;;
5521;SDS011;2783;48.730;8.006;2024-01-30T14:02:48;0.50;;;0.50;;
5521;SDS011;2783;48.730;8.006;2024-01-30T14:05:13;0.50;;;0.50;;
5521;SDS011;2783;48.730;8.006;2024-01-30T14:07:39;0.50;;;0.50;;
5521;SDS011;2783;48.730;8.006;2024-01-30T14:10:05;0.50;;;0.50;;
5521;SDS011;2783;48.730;8.006;2024-01-30T14:12:31;0.52;;;0.52;;
5521;SDS011;2783;48.730;8.006;2024-01-30T14:14:57;0.50;;;0.50;;
5521;SDS011;2783;48.730;8.006;2024-01-30T14:17:22;0.50;;;0.50;;
5521;SDS011;2783;48.730;8.006;2024-01-30T14:19:47;0.60;;;0.60;;
5521;SDS011;2783;48.730;8.006;2024-01-30T14:22:13;0.50;;;0.50;;
5521;SDS011;2783;48.730;8.006;2024-01-30T14:24:38;0.50;;;0.50;;
5521;SDS011;2783;48.730;8.006;2024-01-30T14:27:04;0.50;;;0.50;;
5521;SDS011;2783;48.730;8.006;2024-01-30T14:29:30;0.50;;;0.50;;
5521;SDS011;2783;48.730;8.006;2024-01-30T14:31:55;0.60;;;0.60;;
5521;SDS011;2783;48.730;8.006;2024-01-30T14:34:22;0.50;;;0.50;;
5521;SDS011;2783;48.730;8.006;2024-01-30T14:36:47;0.50;;;0.50;;
5521;SDS011;2783;48.730;8.006;2024-01-30T14:39:13;0.52;;;0.52;;
5521;SDS011;2783;48.730;8.006;2024-01-30T14:41:38;0.50;;;0.50;;
5521;SDS011;2783;48.730;8.006;2024-01-30T14:44:04;0.50;;;0.50;;
5521;SDS011;2783;48.730;8.006;2024-01-30T14:46:30;0.50;;;0.50;;
5521;SDS011;2783;48.730;8.006;2024-01-30T14:48:56;0.50;;;0.50;;
5521;SDS011;2783;48.730;8.006;2024-01-30T14:51:22;0.50;;;0.50;;
5521;SDS011;2783;48.730;8.006;2024-01-30T14:53:48;0.50;;;0.50;;
5521;SDS011;2783;48.730;8.006;2024-01-30T14:56:13;0.50;;;0.50;;
5521;SDS011;2783;48.730;8.006;2024-01-30T14:58:39;0.50;;;0.50;;
5521;SDS011;2783;48.730;8.006;2024-01-30T15:01:04;0.60;;;0.60;;
5521;SDS011;2783;48.730;8.006;2024-01-30T15:03:30;0.60;;;0.60;;
5521;SDS011;2783;48.730;8.006;2024-01-30T15:05:55;0.60;;;0.60;;
5521;SDS011;2783;48.730;8.006;2024-01-30T15:08:21;0.60;;;0.60;;
5521;SDS011;2783;48.730;8.006;2024-01-30T15:10:47;0.60;;;0.60;;